sensor_id;sensor_type;location;lat;lon;timestamp;P1;durP1;ratioP1;P2;durP2;ratioP2
70010;SDS011;59543;37.950;-122.338;2022-10-31T00:00:56;23.80;;;15.43;;
70010;SDS011;59543;37.950;-122.338;2022-10-31T00:03:23;33.28;;;18.45;;
70010;SDS011;59543;37.950;-122.338;2022-10-31T00:05:51;26.92;;;17.20;;
70010;SDS011;59543;37.950;-122.338;2022-10-31T00:08:18;33.20;;;17.60;;
70010;SDS011;59543;37.950;-122.338;2022-10-31T00:10:45;26.98;;;17.83;;
70010;SDS011;59543;37.950;-122.338;2022-10-31T00:13:12;28.95;;;18.48;;
70010;SDS011;59543;37.950;-122.338;2022-10-31T00:15:39;25.75;;;16.45;;
70010;SDS011;59543;37.950;-122.338;2022-10-31T00:18:06;26.15;;;16.92;;
70010;SDS011;59543;37.950;-122.338;2022-10-31T00:20:34;28.73;;;16.52;;
70010;SDS011;59543;37.950;-122.338;2022-10-31T00:23:00;27.58;;;15.15;;
70010;SDS011;59543;37.950;-122.338;2022-10-31T00:25:27;35.22;;;16.58;;
70010;SDS011;59543;37.950;-122.338;2022-10-31T00:27:54;31.95;;;15.57;;
70010;SDS011;59543;37.950;-122.338;2022-10-31T00:30:21;34.88;;;15.38;;
70010;SDS011;59543;37.950;-122.338;2022-10-31T00:32:47;35.22;;;14.93;;
70010;SDS011;59543;37.950;-122.338;2022-10-31T00:35:13;31.40;;;14.32;;
70010;SDS011;59543;37.950;-122.338;2022-10-31T00:37:39;37.83;;;13.68;;
70010;SDS011;59543;37.950;-122.338;2022-10-31T00:40:05;38.08;;;14.30;;
70010;SDS011;59543;37.950;-122.338;2022-10-31T00:42:32;36.13;;;14.88;;
70010;SDS011;59543;37.950;-122.338;2022-10-31T00:44:58;39.50;;;14.65;;
70010;SDS011;59543;37.950;-122.338;2022-10-31T00:47:24;38.05;;;14.38;;
70010;SDS011;59543;37.950;-122.338;2022-10-31T00:49:51;41.70;;;16.00;;
70010;SDS011;59543;37.950;-122.338;2022-10-31T00:52:17;40.63;;;15.55;;
70010;SDS011;59543;37.950;-122.338;2022-10-31T00:54:43;44.28;;;16.83;;
70010;SDS011;59543;37.950;-122.338;2022-10-31T00:57:09;40.33;;;16.30;;
70010;SDS011;59543;37.950;-122.338;2022-10-31T00:59:35;40.88;;;16.75;;
70010;SDS011;59543;37.950;-122.338;2022-10-31T01:02:02;40.17;;;16.67;;
70010;SDS011;59543;37.950;-122.338;2022-10-31T01:04:28;46.72;;;17.40;;
70010;SDS011;59543;37.950;-122.338;2022-10-31T01:06:54;45.55;;;17.67;;
70010;SDS011;59543;37.950;-122.338;2022-10-31T01:09:20;46.15;;;17.42;;
70010;SDS011;59543;37.950;-122.338;2022-10-31T01:11:46;41.33;;;16.00;;
70010;SDS011;59543;37.950;-122.338;2022-10-31T01:14:13;47.85;;;19.02;;
70010;SDS011;59543;37.950;-122.338;2022-10-31T01:16:39;47.55;;;17.67;;
70010;SDS011;59543;37.950;-122.338;2022-10-31T01:19:05;43.47;;;17.23;;
70010;SDS011;59543;37.950;-122.338;2022-10-31T01:21:31;46.15;;;16.85;;
70010;SDS011;59543;37.950;-122.338;2022-10-31T01:23:58;41.65;;;16.25;;
70010;SDS011;59543;37.950;-122.338;2022-10-31T01:26:28;44.80;;;16.33;;
70010;SDS011;59543;37.950;-122.338;2022-10-31T01:29:06;45.83;;;15.73;;
70010;SDS011;59543;37.950;-122.338;2022-10-31T01:31:34;45.90;;;16.75;;
70010;SDS011;59543;37.950;-122.338;2022-10-31T01:34:02;41.10;;;17.05;;
70010;SDS011;59543;37.950;-122.338;2022-10-31T01:36:30;44.88;;;17.38;;
70010;SDS011;59543;37.950;-122.338;2022-10-31T01:39:03;49.35;;;17.50;;
70010;SDS011;59543;37.950;-122.338;2022-10-31T01:41:32;47.15;;;16.83;;
70010;SDS011;59543;37.950;-122.338;2022-10-31T01:44:01;49.00;;;17.20;;
70010;SDS011;59543;37.950;-122.338;2022-10-31T01:49:39;44.97;;;16.38;;
70010;SDS011;59543;37.950;-122.338;2022-10-31T01:54:44;48.72;;;16.80;;
70010;SDS011;59543;37.950;-122.338;2022-10-31T01:57:15;42.03;;;16.30;;
70010;SDS011;59543;37.950;-122.338;2022-10-31T01:59:46;42.05;;;16.70;;
70010;SDS011;59543;37.950;-122.338;2022-10-31T02:02:15;41.13;;;16.55;;
70010;SDS011;59543;37.950;-122.338;2022-10-31T02:04:44;41.80;;;17.00;;
70010;SDS011;59543;37.950;-122.338;2022-10-31T02:07:13;54.80;;;16.83;;
70010;SDS011;59543;37.950;-122.338;2022-10-31T02:09:43;48.88;;;15.95;;
70010;SDS011;59543;37.950;-122.338;2022-10-31T02:12:11;47.67;;;15.73;;
70010;SDS011;59543;37.950;-122.338;2022-10-31T02:14:38;40.45;;;13.65;;
70010;SDS011;59543;37.950;-122.338;2022-10-31T02:17:06;42.92;;;15.23;;
70010;SDS011;59543;37.950;-122.338;2022-10-31T02:36:28;44.08;;;13.43;;
70010;SDS011;59543;37.950;-122.338;2022-10-31T02:41:49;48.35;;;12.30;;
70010;SDS011;59543;37.950;-122.338;2022-10-31T02:47:12;41.53;;;11.38;;
70010;SDS011;59543;37.950;-122.338;2022-10-31T02:50:04;36.67;;;12.18;;
70010;SDS011;59543;37.950;-122.338;2022-10-31T02:52:31;37.53;;;11.60;;
70010;SDS011;59543;37.950;-122.338;2022-10-31T02:55:09;40.20;;;11.93;;
70010;SDS011;59543;37.950;-122.338;2022-10-31T02:57:51;41.05;;;10.85;;
70010;SDS011;59543;37.950;-122.338;2022-10-31T03:00:20;47.85;;;11.60;;
70010;SDS011;59543;37.950;-122.338;2022-10-31T03:02:56;48.20;;;11.55;;
70010;SDS011;59543;37.950;-122.338;2022-10-31T03:11:21;39.53;;;12.40;;
70010;SDS011;59543;37.950;-122.338;2022-10-31T03:14:17;41.50;;;13.05;;
70010;SDS011;59543;37.950;-122.338;2022-10-31T03:16:49;48.65;;;12.65;;
70010;SDS011;59543;37.950;-122.338;2022-10-31T03:19:35;56.13;;;12.10;;
70010;SDS011;59543;37.950;-122.338;2022-10-31T03:22:07;47.72;;;11.35;;
70010;SDS011;59543;37.950;-122.338;2022-10-31T03:24:41;46.05;;;10.95;;
70010;SDS011;59543;37.950;-122.338;2022-10-31T03:27:09;50.90;;;11.50;;
70010;SDS011;59543;37.950;-122.338;2022-10-31T03:29:39;50.05;;;11.57;;
70010;SDS011;59543;37.950;-122.338;2022-10-31T03:34:40;50.95;;;11.13;;
70010;SDS011;59543;37.950;-122.338;2022-10-31T03:37:09;50.50;;;11.75;;
70010;SDS011;59543;37.950;-122.338;2022-10-31T03:39:39;54.42;;;11.82;;
70010;SDS011;59543;37.950;-122.338;2022-10-31T03:42:13;56.28;;;12.20;;
70010;SDS011;59543;37.950;-122.338;2022-10-31T03:44:53;56.92;;;11.73;;
70010;SDS011;59543;37.950;-122.338;2022-10-31T03:47:23;50.08;;;11.88;;
70010;SDS011;59543;37.950;-122.338;2022-10-31T03:49:50;60.08;;;12.82;;
70010;SDS011;59543;37.950;-122.338;2022-10-31T03:52:31;52.17;;;12.18;;
70010;SDS011;59543;37.950;-122.338;2022-10-31T03:55:14;51.25;;;11.68;;
70010;SDS011;59543;37.950;-122.338;2022-10-31T04:00:38;48.65;;;11.88;;
70010;SDS011;59543;37.950;-122.338;2022-10-31T04:03:14;53.92;;;11.85;;
70010;SDS011;59543;37.950;-122.338;2022-10-31T04:05:52;54.05;;;12.30;;
70010;SDS011;59543;37.950;-122.338;2022-10-31T04:08:21;59.20;;;12.52;;
70010;SDS011;59543;37.950;-122.338;2022-10-31T04:10:52;52.50;;;12.35;;
70010;SDS011;59543;37.950;-122.338;2022-10-31T04:13:24;58.50;;;12.05;;
70010;SDS011;59543;37.950;-122.338;2022-10-31T04:15:53;50.05;;;12.02;;
70010;SDS011;59543;37.950;-122.338;2022-10-31T04:18:22;53.08;;;11.88;;
70010;SDS011;59543;37.950;-122.338;2022-10-31T04:20:49;60.85;;;11.88;;
70010;SDS011;59543;37.950;-122.338;2022-10-31T04:23:25;67.35;;;12.20;;
70010;SDS011;59543;37.950;-122.338;2022-10-31T04:25:52;50.67;;;11.85;;
70010;SDS011;59543;37.950;-122.338;2022-10-31T04:28:18;55.90;;;12.40;;
70010;SDS011;59543;37.950;-122.338;2022-10-31T04:30:45;67.28;;;12.45;;
70010;SDS011;59543;37.950;-122.338;2022-10-31T04:33:11;58.83;;;12.77;;
70010;SDS011;59543;37.950;-122.338;2022-10-31T04:35:37;45.95;;;11.02;;
70010;SDS011;59543;37.950;-122.338;2022-10-31T04:38:03;53.80;;;12.48;;
70010;SDS011;59543;37.950;-122.338;2022-10-31T04:40:29;52.70;;;11.82;;
70010;SDS011;59543;37.950;-122.338;2022-10-31T04:42:56;55.83;;;12.80;;
70010;SDS011;59543;37.950;-122.338;2022-10-31T04:45:22;49.33;;;11.23;;
70010;SDS011;59543;37.950;-122.338;2022-10-31T04:47:48;45.78;;;11.48;;
70010;SDS011;59543;37.950;-122.338;2022-10-31T04:50:14;55.60;;;11.88;;
70010;SDS011;59543;37.950;-122.338;2022-10-31T04:52:41;47.72;;;10.93;;
70010;SDS011;59543;37.950;-122.338;2022-10-31T04:55:09;59.10;;;12.20;;
70010;SDS011;59543;37.950;-122.338;2022-10-31T04:57:40;48.92;;;11.52;;
70010;SDS011;59543;37.950;-122.338;2022-10-31T05:00:12;55.67;;;11.98;;
70010;SDS011;59543;37.950;-122.338;2022-10-31T05:02:45;59.75;;;11.23;;
70010;SDS011;59543;37.950;-122.338;2022-10-31T05:05:18;57.10;;;11.68;;
70010;SDS011;59543;37.950;-122.338;2022-10-31T05:07:47;60.28;;;12.05;;
70010;SDS011;59543;37.950;-122.338;2022-10-31T05:10:14;47.60;;;10.40;;
70010;SDS011;59543;37.950;-122.338;2022-10-31T05:12:47;48.72;;;11.13;;
70010;SDS011;59543;37.950;-122.338;2022-10-31T05:15:14;58.20;;;11.80;;
70010;SDS011;59543;37.950;-122.338;2022-10-31T05:17:41;48.65;;;11.18;;
70010;SDS011;59543;37.950;-122.338;2022-10-31T05:20:08;57.30;;;11.90;;
70010;SDS011;59543;37.950;-122.338;2022-10-31T05:22:34;50.72;;;11.18;;
70010;SDS011;59543;37.950;-122.338;2022-10-31T05:25:00;55.80;;;11.23;;
70010;SDS011;59543;37.950;-122.338;2022-10-31T05:27:27;57.15;;;11.15;;
70010;SDS011;59543;37.950;-122.338;2022-10-31T05:29:53;54.88;;;11.63;;
70010;SDS011;59543;37.950;-122.338;2022-10-31T05:32:19;57.92;;;11.60;;
70010;SDS011;59543;37.950;-122.338;2022-10-31T05:34:45;55.88;;;10.88;;
70010;SDS011;59543;37.950;-122.338;2022-10-31T05:37:11;53.05;;;11.25;;
70010;SDS011;59543;37.950;-122.338;2022-10-31T05:39:37;60.20;;;11.82;;
70010;SDS011;59543;37.950;-122.338;2022-10-31T05:42:04;54.08;;;11.07;;
70010;SDS011;59543;37.950;-122.338;2022-10-31T05:44:30;52.72;;;11.18;;
70010;SDS011;59543;37.950;-122.338;2022-10-31T05:46:56;63.65;;;11.88;;
70010;SDS011;59543;37.950;-122.338;2022-10-31T05:49:22;64.75;;;11.60;;
70010;SDS011;59543;37.950;-122.338;2022-10-31T05:51:48;53.53;;;11.20;;
70010;SDS011;59543;37.950;-122.338;2022-10-31T05:54:14;78.15;;;11.65;;
70010;SDS011;59543;37.950;-122.338;2022-10-31T05:56:41;53.55;;;11.43;;
70010;SDS011;59543;37.950;-122.338;2022-10-31T05:59:07;58.60;;;10.98;;
70010;SDS011;59543;37.950;-122.338;2022-10-31T06:01:33;52.08;;;11.25;;
70010;SDS011;59543;37.950;-122.338;2022-10-31T06:03:59;68.25;;;12.27;;
70010;SDS011;59543;37.950;-122.338;2022-10-31T06:06:25;48.20;;;11.27;;
70010;SDS011;59543;37.950;-122.338;2022-10-31T06:08:51;65.78;;;11.90;;
70010;SDS011;59543;37.950;-122.338;2022-10-31T06:11:17;63.50;;;12.13;;
70010;SDS011;59543;37.950;-122.338;2022-10-31T06:13:44;52.45;;;11.27;;
70010;SDS011;59543;37.950;-122.338;2022-10-31T06:16:10;66.80;;;12.15;;
70010;SDS011;59543;37.950;-122.338;2022-10-31T06:18:36;58.67;;;10.95;;
70010;SDS011;59543;37.950;-122.338;2022-10-31T06:21:02;60.28;;;11.10;;
70010;SDS011;59543;37.950;-122.338;2022-10-31T06:23:28;55.58;;;12.50;;
70010;SDS011;59543;37.950;-122.338;2022-10-31T06:25:55;54.53;;;10.90;;
70010;SDS011;59543;37.950;-122.338;2022-10-31T06:28:21;56.10;;;11.38;;
70010;SDS011;59543;37.950;-122.338;2022-10-31T06:30:47;69.13;;;12.18;;
70010;SDS011;59543;37.950;-122.338;2022-10-31T06:33:13;62.83;;;11.15;;
70010;SDS011;59543;37.950;-122.338;2022-10-31T06:35:44;55.72;;;11.40;;
70010;SDS011;59543;37.950;-122.338;2022-10-31T06:38:12;57.50;;;12.13;;
70010;SDS011;59543;37.950;-122.338;2022-10-31T06:40:38;59.50;;;12.68;;
70010;SDS011;59543;37.950;-122.338;2022-10-31T06:43:04;61.45;;;11.20;;
70010;SDS011;59543;37.950;-122.338;2022-10-31T06:45:31;70.05;;;12.32;;
70010;SDS011;59543;37.950;-122.338;2022-10-31T06:47:57;71.60;;;12.57;;
70010;SDS011;59543;37.950;-122.338;2022-10-31T06:50:23;70.05;;;12.73;;
70010;SDS011;59543;37.950;-122.338;2022-10-31T06:52:53;64.32;;;13.32;;
70010;SDS011;59543;37.950;-122.338;2022-10-31T06:55:20;68.43;;;13.35;;
70010;SDS011;59543;37.950;-122.338;2022-10-31T06:58:00;48.00;;;12.13;;
70010;SDS011;59543;37.950;-122.338;2022-10-31T07:00:27;56.17;;;12.60;;
70010;SDS011;59543;37.950;-122.338;2022-10-31T07:03:02;54.38;;;12.52;;
70010;SDS011;59543;37.950;-122.338;2022-10-31T07:05:30;56.85;;;13.68;;
70010;SDS011;59543;37.950;-122.338;2022-10-31T07:07:57;58.67;;;13.23;;
70010;SDS011;59543;37.950;-122.338;2022-10-31T07:10:31;48.63;;;12.35;;
70010;SDS011;59543;37.950;-122.338;2022-10-31T07:13:00;51.08;;;11.63;;
70010;SDS011;59543;37.950;-122.338;2022-10-31T07:15:28;53.88;;;11.30;;
70010;SDS011;59543;37.950;-122.338;2022-10-31T07:17:59;43.72;;;10.85;;
70010;SDS011;59543;37.950;-122.338;2022-10-31T07:20:29;63.60;;;12.45;;
70010;SDS011;59543;37.950;-122.338;2022-10-31T07:22:55;55.67;;;11.95;;
70010;SDS011;59543;37.950;-122.338;2022-10-31T07:25:22;58.10;;;11.93;;
70010;SDS011;59543;37.950;-122.338;2022-10-31T07:27:49;54.80;;;11.15;;
70010;SDS011;59543;37.950;-122.338;2022-10-31T07:30:16;55.97;;;11.73;;
70010;SDS011;59543;37.950;-122.338;2022-10-31T07:32:44;54.97;;;11.35;;
70010;SDS011;59543;37.950;-122.338;2022-10-31T07:35:14;60.85;;;12.18;;
70010;SDS011;59543;37.950;-122.338;2022-10-31T07:37:42;59.10;;;11.45;;
70010;SDS011;59543;37.950;-122.338;2022-10-31T07:40:08;56.25;;;11.57;;
70010;SDS011;59543;37.950;-122.338;2022-10-31T07:42:35;57.20;;;11.32;;
70010;SDS011;59543;37.950;-122.338;2022-10-31T07:45:03;66.35;;;11.85;;
70010;SDS011;59543;37.950;-122.338;2022-10-31T07:47:37;63.55;;;12.73;;
70010;SDS011;59543;37.950;-122.338;2022-10-31T07:50:12;60.78;;;12.18;;
70010;SDS011;59543;37.950;-122.338;2022-10-31T07:52:40;49.00;;;10.85;;
70010;SDS011;59543;37.950;-122.338;2022-10-31T07:55:07;57.35;;;12.05;;
70010;SDS011;59543;37.950;-122.338;2022-10-31T07:57:34;59.47;;;11.88;;
70010;SDS011;59543;37.950;-122.338;2022-10-31T08:00:03;59.00;;;11.35;;
70010;SDS011;59543;37.950;-122.338;2022-10-31T08:02:30;61.03;;;11.88;;
70010;SDS011;59543;37.950;-122.338;2022-10-31T08:04:56;57.78;;;12.13;;
70010;SDS011;59543;37.950;-122.338;2022-10-31T08:07:22;54.60;;;11.05;;
70010;SDS011;59543;37.950;-122.338;2022-10-31T08:09:48;58.47;;;11.63;;
70010;SDS011;59543;37.950;-122.338;2022-10-31T08:12:15;65.60;;;12.05;;
70010;SDS011;59543;37.950;-122.338;2022-10-31T08:14:41;49.15;;;10.80;;
70010;SDS011;59543;37.950;-122.338;2022-10-31T08:17:07;70.43;;;12.25;;
70010;SDS011;59543;37.950;-122.338;2022-10-31T08:19:33;60.20;;;11.07;;
70010;SDS011;59543;37.950;-122.338;2022-10-31T08:21:59;54.15;;;11.23;;
70010;SDS011;59543;37.950;-122.338;2022-10-31T08:24:26;56.92;;;11.75;;
70010;SDS011;59543;37.950;-122.338;2022-10-31T08:26:52;62.10;;;11.45;;
70010;SDS011;59543;37.950;-122.338;2022-10-31T08:29:18;67.13;;;12.00;;
70010;SDS011;59543;37.950;-122.338;2022-10-31T08:31:44;70.60;;;12.57;;
70010;SDS011;59543;37.950;-122.338;2022-10-31T08:34:10;63.72;;;12.15;;
70010;SDS011;59543;37.950;-122.338;2022-10-31T08:36:37;60.28;;;12.80;;
70010;SDS011;59543;37.950;-122.338;2022-10-31T08:39:03;54.20;;;11.27;;
70010;SDS011;59543;37.950;-122.338;2022-10-31T08:41:29;59.42;;;11.23;;
70010;SDS011;59543;37.950;-122.338;2022-10-31T08:43:56;49.30;;;10.70;;
70010;SDS011;59543;37.950;-122.338;2022-10-31T08:46:22;58.70;;;10.57;;
70010;SDS011;59543;37.950;-122.338;2022-10-31T08:48:48;62.75;;;11.50;;
70010;SDS011;59543;37.950;-122.338;2022-10-31T08:51:14;59.75;;;11.23;;
70010;SDS011;59543;37.950;-122.338;2022-10-31T08:53:40;54.67;;;11.82;;
70010;SDS011;59543;37.950;-122.338;2022-10-31T08:56:07;50.45;;;10.73;;
70010;SDS011;59543;37.950;-122.338;2022-10-31T08:58:33;54.50;;;11.48;;
70010;SDS011;59543;37.950;-122.338;2022-10-31T09:01:00;64.63;;;11.50;;
70010;SDS011;59543;37.950;-122.338;2022-10-31T09:03:27;56.47;;;10.70;;
70010;SDS011;59543;37.950;-122.338;2022-10-31T09:05:56;60.05;;;11.63;;
70010;SDS011;59543;37.950;-122.338;2022-10-31T09:08:29;56.85;;;11.95;;
70010;SDS011;59543;37.950;-122.338;2022-10-31T09:10:56;58.92;;;11.35;;
70010;SDS011;59543;37.950;-122.338;2022-10-31T09:13:23;55.67;;;11.30;;
70010;SDS011;59543;37.950;-122.338;2022-10-31T09:15:50;55.17;;;10.70;;
70010;SDS011;59543;37.950;-122.338;2022-10-31T09:18:17;53.47;;;11.35;;
70010;SDS011;59543;37.950;-122.338;2022-10-31T09:20:46;58.95;;;10.98;;
70010;SDS011;59543;37.950;-122.338;2022-10-31T09:23:14;68.38;;;11.68;;
70010;SDS011;59543;37.950;-122.338;2022-10-31T09:25:42;66.57;;;11.50;;
70010;SDS011;59543;37.950;-122.338;2022-10-31T09:28:10;67.03;;;11.35;;
70010;SDS011;59543;37.950;-122.338;2022-10-31T09:30:38;55.35;;;11.20;;
70010;SDS011;59543;37.950;-122.338;2022-10-31T09:33:05;54.58;;;10.93;;
70010;SDS011;59543;37.950;-122.338;2022-10-31T09:35:36;61.58;;;11.05;;
70010;SDS011;59543;37.950;-122.338;2022-10-31T09:38:04;54.78;;;11.30;;
70010;SDS011;59543;37.950;-122.338;2022-10-31T09:40:36;63.25;;;11.13;;
70010;SDS011;59543;37.950;-122.338;2022-10-31T09:46:04;69.47;;;12.52;;
70010;SDS011;59543;37.950;-122.338;2022-10-31T09:51:23;63.67;;;11.20;;
70010;SDS011;59543;37.950;-122.338;2022-10-31T09:54:00;59.45;;;11.30;;
70010;SDS011;59543;37.950;-122.338;2022-10-31T09:56:28;69.72;;;12.25;;
70010;SDS011;59543;37.950;-122.338;2022-10-31T09:58:57;58.38;;;11.07;;
70010;SDS011;59543;37.950;-122.338;2022-10-31T10:01:29;63.35;;;11.40;;
70010;SDS011;59543;37.950;-122.338;2022-10-31T10:04:12;56.58;;;11.48;;
70010;SDS011;59543;37.950;-122.338;2022-10-31T10:06:54;68.82;;;12.38;;
70010;SDS011;59543;37.950;-122.338;2022-10-31T10:09:24;60.83;;;11.15;;
70010;SDS011;59543;37.950;-122.338;2022-10-31T10:11:54;58.70;;;11.88;;
70010;SDS011;59543;37.950;-122.338;2022-10-31T10:22:57;60.40;;;11.35;;
70010;SDS011;59543;37.950;-122.338;2022-10-31T10:25:14;66.80;;;12.20;;
70010;SDS011;59543;37.950;-122.338;2022-10-31T10:27:52;66.05;;;12.18;;
70010;SDS011;59543;37.950;-122.338;2022-10-31T10:30:54;72.05;;;12.68;;
70010;SDS011;59543;37.950;-122.338;2022-10-31T10:33:23;56.13;;;11.43;;
70010;SDS011;59543;37.950;-122.338;2022-10-31T10:36:00;55.40;;;11.75;;
70010;SDS011;59543;37.950;-122.338;2022-10-31T10:41:28;58.60;;;12.32;;
70010;SDS011;59543;37.950;-122.338;2022-10-31T10:43:57;60.13;;;11.68;;
70010;SDS011;59543;37.950;-122.338;2022-10-31T10:49:30;56.33;;;12.02;;
70010;SDS011;59543;37.950;-122.338;2022-10-31T11:02:42;60.35;;;12.20;;
70010;SDS011;59543;37.950;-122.338;2022-10-31T11:05:13;62.00;;;11.63;;
70010;SDS011;59543;37.950;-122.338;2022-10-31T11:07:53;70.35;;;12.85;;
70010;SDS011;59543;37.950;-122.338;2022-10-31T11:10:19;77.05;;;13.18;;
70010;SDS011;59543;37.950;-122.338;2022-10-31T11:13:31;64.80;;;12.60;;
70010;SDS011;59543;37.950;-122.338;2022-10-31T11:15:35;74.88;;;13.32;;
70010;SDS011;59543;37.950;-122.338;2022-10-31T11:18:05;72.85;;;11.95;;
70010;SDS011;59543;37.950;-122.338;2022-10-31T11:20:39;65.10;;;12.55;;
70010;SDS011;59543;37.950;-122.338;2022-10-31T11:23:18;58.40;;;12.10;;
70010;SDS011;59543;37.950;-122.338;2022-10-31T11:26:05;72.45;;;12.50;;
70010;SDS011;59543;37.950;-122.338;2022-10-31T11:28:41;53.45;;;10.88;;
70010;SDS011;59543;37.950;-122.338;2022-10-31T11:31:10;58.03;;;11.15;;
70010;SDS011;59543;37.950;-122.338;2022-10-31T11:33:44;75.55;;;12.43;;
70010;SDS011;59543;37.950;-122.338;2022-10-31T11:38:41;65.93;;;12.52;;
70010;SDS011;59543;37.950;-122.338;2022-10-31T11:41:11;61.45;;;11.48;;
70010;SDS011;59543;37.950;-122.338;2022-10-31T11:44:09;63.70;;;11.98;;
70010;SDS011;59543;37.950;-122.338;2022-10-31T11:46:41;63.33;;;11.73;;
70010;SDS011;59543;37.950;-122.338;2022-10-31T11:49:34;64.18;;;12.13;;
70010;SDS011;59543;37.950;-122.338;2022-10-31T11:51:59;59.15;;;10.85;;
70010;SDS011;59543;37.950;-122.338;2022-10-31T11:54:31;72.28;;;10.80;;
70010;SDS011;59543;37.950;-122.338;2022-10-31T11:57:02;56.10;;;10.77;;
70010;SDS011;59543;37.950;-122.338;2022-10-31T11:59:29;59.33;;;11.43;;
70010;SDS011;59543;37.950;-122.338;2022-10-31T12:01:58;64.93;;;11.55;;
70010;SDS011;59543;37.950;-122.338;2022-10-31T12:04:29;72.13;;;11.38;;
70010;SDS011;59543;37.950;-122.338;2022-10-31T12:07:05;57.45;;;12.13;;
70010;SDS011;59543;37.950;-122.338;2022-10-31T12:09:35;70.45;;;12.80;;
70010;SDS011;59543;37.950;-122.338;2022-10-31T12:44:55;60.10;;;11.23;;
70010;SDS011;59543;37.950;-122.338;2022-10-31T12:50:28;71.32;;;12.68;;
70010;SDS011;59543;37.950;-122.338;2022-10-31T12:53:19;54.88;;;11.60;;
70010;SDS011;59543;37.950;-122.338;2022-10-31T12:58:45;64.35;;;12.65;;
70010;SDS011;59543;37.950;-122.338;2022-10-31T13:01:21;68.35;;;12.88;;
70010;SDS011;59543;37.950;-122.338;2022-10-31T13:04:12;67.65;;;11.52;;
70010;SDS011;59543;37.950;-122.338;2022-10-31T13:07:02;64.95;;;12.63;;
70010;SDS011;59543;37.950;-122.338;2022-10-31T13:09:38;52.33;;;11.75;;
70010;SDS011;59543;37.950;-122.338;2022-10-31T13:12:16;53.38;;;11.45;;
70010;SDS011;59543;37.950;-122.338;2022-10-31T13:14:49;57.55;;;11.27;;
70010;SDS011;59543;37.950;-122.338;2022-10-31T13:20:15;54.22;;;11.55;;
70010;SDS011;59543;37.950;-122.338;2022-10-31T13:22:44;64.03;;;11.30;;
70010;SDS011;59543;37.950;-122.338;2022-10-31T13:25:33;51.53;;;10.93;;
70010;SDS011;59543;37.950;-122.338;2022-10-31T13:28:11;58.38;;;11.60;;
70010;SDS011;59543;37.950;-122.338;2022-10-31T13:30:46;64.82;;;11.77;;
70010;SDS011;59543;37.950;-122.338;2022-10-31T13:33:16;54.05;;;11.57;;
70010;SDS011;59543;37.950;-122.338;2022-10-31T13:35:53;54.53;;;11.65;;
70010;SDS011;59543;37.950;-122.338;2022-10-31T13:38:40;53.42;;;11.10;;
70010;SDS011;59543;37.950;-122.338;2022-10-31T13:46:39;44.20;;;10.95;;
70010;SDS011;59543;37.950;-122.338;2022-10-31T13:51:51;49.60;;;10.27;;
70010;SDS011;59543;37.950;-122.338;2022-10-31T13:54:23;51.58;;;11.02;;
70010;SDS011;59543;37.950;-122.338;2022-10-31T13:56:57;48.53;;;11.98;;
70010;SDS011;59543;37.950;-122.338;2022-10-31T13:59:25;43.80;;;10.30;;
70010;SDS011;59543;37.950;-122.338;2022-10-31T14:04:26;55.67;;;11.98;;
70010;SDS011;59543;37.950;-122.338;2022-10-31T14:07:09;57.70;;;12.00;;
70010;SDS011;59543;37.950;-122.338;2022-10-31T14:09:52;57.70;;;12.10;;
70010;SDS011;59543;37.950;-122.338;2022-10-31T14:12:33;56.78;;;11.90;;
70010;SDS011;59543;37.950;-122.338;2022-10-31T14:17:51;54.90;;;12.93;;
70010;SDS011;59543;37.950;-122.338;2022-10-31T14:22:44;56.90;;;13.63;;
70010;SDS011;59543;37.950;-122.338;2022-10-31T14:25:31;62.85;;;13.00;;
70010;SDS011;59543;37.950;-122.338;2022-10-31T14:28:03;55.97;;;12.38;;
70010;SDS011;59543;37.950;-122.338;2022-10-31T14:30:52;60.88;;;13.40;;
70010;SDS011;59543;37.950;-122.338;2022-10-31T14:33:20;51.60;;;12.15;;
70010;SDS011;59543;37.950;-122.338;2022-10-31T14:36:08;65.88;;;13.70;;
70010;SDS011;59543;37.950;-122.338;2022-10-31T14:44:33;66.70;;;14.25;;
70010;SDS011;59543;37.950;-122.338;2022-10-31T14:49:39;48.28;;;11.45;;
70010;SDS011;59543;37.950;-122.338;2022-10-31T14:52:28;48.22;;;11.15;;
70010;SDS011;59543;37.950;-122.338;2022-10-31T14:54:54;66.35;;;12.93;;
70010;SDS011;59543;37.950;-122.338;2022-10-31T14:57:28;59.70;;;12.52;;
70010;SDS011;59543;37.950;-122.338;2022-10-31T14:59:59;62.35;;;12.55;;
70010;SDS011;59543;37.950;-122.338;2022-10-31T15:05:17;60.17;;;12.55;;
70010;SDS011;59543;37.950;-122.338;2022-10-31T15:07:53;62.88;;;12.90;;
70010;SDS011;59543;37.950;-122.338;2022-10-31T15:10:26;67.93;;;12.30;;
70010;SDS011;59543;37.950;-122.338;2022-10-31T15:12:55;59.63;;;12.65;;
70010;SDS011;59543;37.950;-122.338;2022-10-31T15:15:33;53.67;;;12.32;;
70010;SDS011;59543;37.950;-122.338;2022-10-31T15:18:00;52.97;;;11.98;;
70010;SDS011;59543;37.950;-122.338;2022-10-31T15:20:29;64.00;;;12.68;;
70010;SDS011;59543;37.950;-122.338;2022-10-31T15:22:59;52.55;;;12.07;;
70010;SDS011;59543;37.950;-122.338;2022-10-31T15:25:27;56.38;;;11.95;;
70010;SDS011;59543;37.950;-122.338;2022-10-31T15:27:58;44.20;;;11.88;;
70010;SDS011;59543;37.950;-122.338;2022-10-31T15:30:25;62.70;;;12.48;;
70010;SDS011;59543;37.950;-122.338;2022-10-31T15:32:52;59.70;;;11.68;;
70010;SDS011;59543;37.950;-122.338;2022-10-31T15:35:20;61.88;;;12.10;;
70010;SDS011;59543;37.950;-122.338;2022-10-31T15:37:53;60.15;;;12.38;;
70010;SDS011;59543;37.950;-122.338;2022-10-31T15:40:22;52.22;;;10.63;;
70010;SDS011;59543;37.950;-122.338;2022-10-31T15:42:51;46.28;;;10.40;;
70010;SDS011;59543;37.950;-122.338;2022-10-31T15:45:24;54.42;;;11.65;;
70010;SDS011;59543;37.950;-122.338;2022-10-31T15:47:56;52.05;;;10.80;;
70010;SDS011;59543;37.950;-122.338;2022-10-31T15:51:06;44.53;;;11.35;;
70010;SDS011;59543;37.950;-122.338;2022-10-31T15:53:25;52.92;;;11.90;;
70010;SDS011;59543;37.950;-122.338;2022-10-31T15:55:55;45.90;;;11.05;;
70010;SDS011;59543;37.950;-122.338;2022-10-31T15:58:29;50.40;;;11.95;;
70010;SDS011;59543;37.950;-122.338;2022-10-31T16:01:02;58.72;;;11.63;;
70010;SDS011;59543;37.950;-122.338;2022-10-31T16:03:43;51.42;;;11.20;;
70010;SDS011;59543;37.950;-122.338;2022-10-31T16:06:22;51.92;;;11.07;;
70010;SDS011;59543;37.950;-122.338;2022-10-31T16:08:48;54.45;;;11.68;;
70010;SDS011;59543;37.950;-122.338;2022-10-31T16:11:17;59.58;;;12.15;;
70010;SDS011;59543;37.950;-122.338;2022-10-31T16:13:53;44.40;;;11.35;;
70010;SDS011;59543;37.950;-122.338;2022-10-31T16:16:22;58.88;;;12.43;;
70010;SDS011;59543;37.950;-122.338;2022-10-31T16:18:50;51.97;;;12.05;;
70010;SDS011;59543;37.950;-122.338;2022-10-31T16:21:38;43.15;;;11.13;;
70010;SDS011;59543;37.950;-122.338;2022-10-31T16:24:26;48.85;;;11.73;;